sensor_id;sensor_type;location;lat;lon;timestamp;P1;durP1;ratioP1;P2;durP2;ratioP2
4961;SDS011;2496;52.468;13.342;2023-10-19T00:01:06;18.60;;;12.27;;
4961;SDS011;2496;52.468;13.342;2023-10-19T00:03:35;18.83;;;12.13;;
4961;SDS011;2496;52.468;13.342;2023-10-19T00:06:01;22.97;;;13.17;;
4961;SDS011;2496;52.468;13.342;2023-10-19T00:08:31;20.40;;;12.93;;
4961;SDS011;2496;52.468;13.342;2023-10-19T00:11:05;21.83;;;14.10;;
4961;SDS011;2496;52.468;13.342;2023-10-19T00:13:35;23.23;;;12.50;;
4961;SDS011;2496;52.468;13.342;2023-10-19T00:16:03;19.80;;;12.70;;
4961;SDS011;2496;52.468;13.342;2023-10-19T00:18:37;23.30;;;14.30;;
4961;SDS011;2496;52.468;13.342;2023-10-19T00:21:07;25.53;;;13.30;;
4961;SDS011;2496;52.468;13.342;2023-10-19T00:23:45;19.30;;;11.87;;
4961;SDS011;2496;52.468;13.342;2023-10-19T00:26:12;19.43;;;12.40;;
4961;SDS011;2496;52.468;13.342;2023-10-19T00:28:43;22.40;;;13.03;;
4961;SDS011;2496;52.468;13.342;2023-10-19T00:31:11;20.50;;;13.03;;
4961;SDS011;2496;52.468;13.342;2023-10-19T00:33:38;22.40;;;13.40;;
4961;SDS011;2496;52.468;13.342;2023-10-19T00:36:06;21.40;;;13.30;;
4961;SDS011;2496;52.468;13.342;2023-10-19T00:38:33;20.43;;;12.50;;
4961;SDS011;2496;52.468;13.342;2023-10-19T00:41:14;22.63;;;13.10;;
4961;SDS011;2496;52.468;13.342;2023-10-19T00:43:46;20.07;;;12.87;;
4961;SDS011;2496;52.468;13.342;2023-10-19T00:46:15;23.17;;;13.30;;
4961;SDS011;2496;52.468;13.342;2023-10-19T00:48:48;18.70;;;13.00;;
4961;SDS011;2496;52.468;13.342;2023-10-19T00:51:16;23.77;;;12.70;;
4961;SDS011;2496;52.468;13.342;2023-10-19T00:54:07;19.40;;;11.90;;
4961;SDS011;2496;52.468;13.342;2023-10-19T00:56:41;27.17;;;12.70;;
4961;SDS011;2496;52.468;13.342;2023-10-19T00:59:13;21.00;;;13.30;;
4961;SDS011;2496;52.468;13.342;2023-10-19T01:01:47;19.73;;;11.73;;
4961;SDS011;2496;52.468;13.342;2023-10-19T01:04:19;19.93;;;13.00;;
4961;SDS011;2496;52.468;13.342;2023-10-19T01:06:48;19.30;;;12.90;;
4961;SDS011;2496;52.468;13.342;2023-10-19T01:09:26;21.73;;;12.47;;
4961;SDS011;2496;52.468;13.342;2023-10-19T01:11:55;27.90;;;13.60;;
4961;SDS011;2496;52.468;13.342;2023-10-19T01:14:26;21.67;;;13.60;;
4961;SDS011;2496;52.468;13.342;2023-10-19T01:16:54;18.83;;;12.77;;
4961;SDS011;2496;52.468;13.342;2023-10-19T01:19:22;24.20;;;12.50;;
4961;SDS011;2496;52.468;13.342;2023-10-19T01:21:52;22.17;;;12.13;;
4961;SDS011;2496;52.468;13.342;2023-10-19T01:24:26;20.37;;;12.63;;
4961;SDS011;2496;52.468;13.342;2023-10-19T01:27:05;21.40;;;12.97;;
4961;SDS011;2496;52.468;13.342;2023-10-19T01:29:33;20.80;;;11.73;;
4961;SDS011;2496;52.468;13.342;2023-10-19T01:32:02;26.17;;;13.07;;
4961;SDS011;2496;52.468;13.342;2023-10-19T01:34:33;28.13;;;13.07;;
4961;SDS011;2496;52.468;13.342;2023-10-19T01:37:01;21.27;;;13.80;;
4961;SDS011;2496;52.468;13.342;2023-10-19T01:39:30;18.03;;;12.63;;
4961;SDS011;2496;52.468;13.342;2023-10-19T01:42:00;28.27;;;12.87;;
4961;SDS011;2496;52.468;13.342;2023-10-19T01:44:26;18.30;;;12.27;;
4961;SDS011;2496;52.468;13.342;2023-10-19T01:46:53;17.37;;;12.33;;
4961;SDS011;2496;52.468;13.342;2023-10-19T01:49:20;24.30;;;12.93;;
4961;SDS011;2496;52.468;13.342;2023-10-19T01:51:52;20.33;;;12.90;;
4961;SDS011;2496;52.468;13.342;2023-10-19T01:54:19;30.17;;;14.03;;
4961;SDS011;2496;52.468;13.342;2023-10-19T01:56:51;21.70;;;12.40;;
4961;SDS011;2496;52.468;13.342;2023-10-19T01:59:20;22.00;;;12.90;;
4961;SDS011;2496;52.468;13.342;2023-10-19T02:01:52;22.70;;;12.47;;
4961;SDS011;2496;52.468;13.342;2023-10-19T02:04:18;19.20;;;12.30;;
4961;SDS011;2496;52.468;13.342;2023-10-19T02:06:47;26.17;;;14.97;;
4961;SDS011;2496;52.468;13.342;2023-10-19T02:09:14;22.13;;;12.67;;
4961;SDS011;2496;52.468;13.342;2023-10-19T02:11:47;23.30;;;12.47;;
4961;SDS011;2496;52.468;13.342;2023-10-19T02:14:15;22.67;;;12.67;;
4961;SDS011;2496;52.468;13.342;2023-10-19T02:16:44;20.97;;;13.07;;
4961;SDS011;2496;52.468;13.342;2023-10-19T02:19:12;28.87;;;14.40;;
4961;SDS011;2496;52.468;13.342;2023-10-19T02:21:39;23.80;;;13.20;;
4961;SDS011;2496;52.468;13.342;2023-10-19T02:24:06;19.80;;;12.80;;
4961;SDS011;2496;52.468;13.342;2023-10-19T02:26:34;20.83;;;13.43;;
4961;SDS011;2496;52.468;13.342;2023-10-19T02:29:02;18.03;;;12.63;;
4961;SDS011;2496;52.468;13.342;2023-10-19T02:31:34;20.93;;;12.60;;
4961;SDS011;2496;52.468;13.342;2023-10-19T02:34:03;19.73;;;13.67;;
4961;SDS011;2496;52.468;13.342;2023-10-19T02:36:31;24.83;;;14.03;;
4961;SDS011;2496;52.468;13.342;2023-10-19T02:38:58;22.57;;;13.10;;
4961;SDS011;2496;52.468;13.342;2023-10-19T02:41:26;22.23;;;14.37;;
4961;SDS011;2496;52.468;13.342;2023-10-19T02:43:52;28.50;;;14.87;;
4961;SDS011;2496;52.468;13.342;2023-10-19T02:46:27;30.33;;;14.60;;
4961;SDS011;2496;52.468;13.342;2023-10-19T02:48:56;26.00;;;15.30;;
4961;SDS011;2496;52.468;13.342;2023-10-19T02:51:24;24.43;;;14.90;;
4961;SDS011;2496;52.468;13.342;2023-10-19T02:53:51;25.60;;;13.73;;
4961;SDS011;2496;52.468;13.342;2023-10-19T02:56:18;28.40;;;14.60;;
4961;SDS011;2496;52.468;13.342;2023-10-19T02:58:48;27.70;;;15.07;;
4961;SDS011;2496;52.468;13.342;2023-10-19T03:01:15;26.80;;;15.00;;
4961;SDS011;2496;52.468;13.342;2023-10-19T03:03:51;23.00;;;13.87;;
4961;SDS011;2496;52.468;13.342;2023-10-19T03:06:20;20.90;;;13.67;;
4961;SDS011;2496;52.468;13.342;2023-10-19T03:08:48;24.10;;;14.00;;
4961;SDS011;2496;52.468;13.342;2023-10-19T03:11:22;27.73;;;13.90;;
4961;SDS011;2496;52.468;13.342;2023-10-19T03:13:49;22.60;;;15.20;;
4961;SDS011;2496;52.468;13.342;2023-10-19T03:16:15;24.60;;;14.33;;
4961;SDS011;2496;52.468;13.342;2023-10-19T03:18:44;21.33;;;14.27;;
4961;SDS011;2496;52.468;13.342;2023-10-19T03:21:10;25.97;;;15.20;;
4961;SDS011;2496;52.468;13.342;2023-10-19T03:23:38;25.03;;;15.30;;
4961;SDS011;2496;52.468;13.342;2023-10-19T03:26:06;26.53;;;15.13;;
4961;SDS011;2496;52.468;13.342;2023-10-19T03:28:52;24.93;;;15.50;;
4961;SDS011;2496;52.468;13.342;2023-10-19T03:31:20;26.50;;;14.83;;
4961;SDS011;2496;52.468;13.342;2023-10-19T03:33:48;22.77;;;14.20;;
4961;SDS011;2496;52.468;13.342;2023-10-19T03:36:19;26.60;;;16.17;;
4961;SDS011;2496;52.468;13.342;2023-10-19T03:38:48;25.77;;;15.10;;
4961;SDS011;2496;52.468;13.342;2023-10-19T03:41:16;26.57;;;14.80;;
4961;SDS011;2496;52.468;13.342;2023-10-19T03:43:46;26.03;;;15.30;;
4961;SDS011;2496;52.468;13.342;2023-10-19T03:46:14;23.87;;;14.20;;
4961;SDS011;2496;52.468;13.342;2023-10-19T03:48:48;26.50;;;14.00;;
4961;SDS011;2496;52.468;13.342;2023-10-19T03:51:15;22.27;;;13.97;;
4961;SDS011;2496;52.468;13.342;2023-10-19T03:53:42;29.30;;;15.67;;
4961;SDS011;2496;52.468;13.342;2023-10-19T03:56:15;28.43;;;15.00;;
4961;SDS011;2496;52.468;13.342;2023-10-19T03:58:43;28.47;;;15.63;;
4961;SDS011;2496;52.468;13.342;2023-10-19T04:01:15;24.77;;;15.23;;
4961;SDS011;2496;52.468;13.342;2023-10-19T04:03:42;29.23;;;16.27;;
4961;SDS011;2496;52.468;13.342;2023-10-19T04:06:09;22.63;;;15.27;;
4961;SDS011;2496;52.468;13.342;2023-10-19T04:08:39;26.03;;;15.97;;
4961;SDS011;2496;52.468;13.342;2023-10-19T04:11:07;26.97;;;15.90;;
4961;SDS011;2496;52.468;13.342;2023-10-19T04:13:38;27.70;;;16.40;;
4961;SDS011;2496;52.468;13.342;2023-10-19T04:16:05;27.80;;;16.27;;
4961;SDS011;2496;52.468;13.342;2023-10-19T04:18:35;31.97;;;17.13;;
4961;SDS011;2496;52.468;13.342;2023-10-19T04:21:08;27.20;;;15.37;;
4961;SDS011;2496;52.468;13.342;2023-10-19T04:23:35;31.30;;;17.47;;
4961;SDS011;2496;52.468;13.342;2023-10-19T04:26:02;29.47;;;16.80;;
4961;SDS011;2496;52.468;13.342;2023-10-19T04:28:37;24.37;;;14.40;;
4961;SDS011;2496;52.468;13.342;2023-10-19T04:31:10;36.90;;;17.47;;
4961;SDS011;2496;52.468;13.342;2023-10-19T04:33:40;27.33;;;15.40;;
4961;SDS011;2496;52.468;13.342;2023-10-19T04:36:10;35.20;;;16.97;;
4961;SDS011;2496;52.468;13.342;2023-10-19T04:38:39;27.67;;;15.77;;
4961;SDS011;2496;52.468;13.342;2023-10-19T04:41:06;28.67;;;17.97;;
4961;SDS011;2496;52.468;13.342;2023-10-19T04:43:34;34.90;;;16.27;;
4961;SDS011;2496;52.468;13.342;2023-10-19T04:46:07;32.03;;;16.87;;
4961;SDS011;2496;52.468;13.342;2023-10-19T04:48:36;25.70;;;15.27;;
4961;SDS011;2496;52.468;13.342;2023-10-19T04:51:05;31.90;;;15.90;;
4961;SDS011;2496;52.468;13.342;2023-10-19T04:53:34;25.40;;;16.23;;
4961;SDS011;2496;52.468;13.342;2023-10-19T04:56:02;27.80;;;17.17;;
4961;SDS011;2496;52.468;13.342;2023-10-19T04:58:29;27.00;;;15.83;;
4961;SDS011;2496;52.468;13.342;2023-10-19T05:00:57;30.13;;;16.87;;
4961;SDS011;2496;52.468;13.342;2023-10-19T05:03:25;30.30;;;16.77;;
4961;SDS011;2496;52.468;13.342;2023-10-19T05:05:53;23.03;;;16.00;;
4961;SDS011;2496;52.468;13.342;2023-10-19T05:08:21;30.73;;;15.73;;
4961;SDS011;2496;52.468;13.342;2023-10-19T05:10:50;28.23;;;16.70;;
4961;SDS011;2496;52.468;13.342;2023-10-19T05:13:19;29.80;;;16.67;;
4961;SDS011;2496;52.468;13.342;2023-10-19T05:15:46;27.07;;;16.73;;
4961;SDS011;2496;52.468;13.342;2023-10-19T05:18:13;32.33;;;16.67;;
4961;SDS011;2496;52.468;13.342;2023-10-19T05:20:41;27.20;;;17.17;;
4961;SDS011;2496;52.468;13.342;2023-10-19T05:23:08;27.57;;;16.93;;
4961;SDS011;2496;52.468;13.342;2023-10-19T05:25:35;26.43;;;16.23;;
4961;SDS011;2496;52.468;13.342;2023-10-19T05:28:03;34.50;;;16.13;;
4961;SDS011;2496;52.468;13.342;2023-10-19T05:30:31;25.30;;;15.90;;
4961;SDS011;2496;52.468;13.342;2023-10-19T05:32:58;28.83;;;17.50;;
4961;SDS011;2496;52.468;13.342;2023-10-19T05:35:26;28.00;;;17.50;;
4961;SDS011;2496;52.468;13.342;2023-10-19T05:37:56;26.53;;;16.27;;
4961;SDS011;2496;52.468;13.342;2023-10-19T05:40:23;32.80;;;19.77;;
4961;SDS011;2496;52.468;13.342;2023-10-19T05:42:54;28.67;;;18.23;;
4961;SDS011;2496;52.468;13.342;2023-10-19T05:45:22;30.67;;;18.20;;
4961;SDS011;2496;52.468;13.342;2023-10-19T05:47:50;29.70;;;17.73;;
4961;SDS011;2496;52.468;13.342;2023-10-19T05:50:16;31.23;;;18.60;;
4961;SDS011;2496;52.468;13.342;2023-10-19T05:52:45;29.80;;;18.53;;
4961;SDS011;2496;52.468;13.342;2023-10-19T05:55:13;31.43;;;18.23;;
4961;SDS011;2496;52.468;13.342;2023-10-19T05:57:41;30.03;;;17.30;;
4961;SDS011;2496;52.468;13.342;2023-10-19T06:00:10;33.40;;;18.57;;
4961;SDS011;2496;52.468;13.342;2023-10-19T06:02:39;31.47;;;18.73;;
4961;SDS011;2496;52.468;13.342;2023-10-19T06:05:09;37.67;;;18.70;;
4961;SDS011;2496;52.468;13.342;2023-10-19T06:07:37;37.27;;;20.60;;
4961;SDS011;2496;52.468;13.342;2023-10-19T06:10:04;32.87;;;18.70;;
4961;SDS011;2496;52.468;13.342;2023-10-19T06:12:33;34.97;;;20.40;;
4961;SDS011;2496;52.468;13.342;2023-10-19T06:15:02;33.80;;;19.63;;
4961;SDS011;2496;52.468;13.342;2023-10-19T06:17:29;36.90;;;20.93;;
4961;SDS011;2496;52.468;13.342;2023-10-19T06:19:56;32.23;;;19.57;;
4961;SDS011;2496;52.468;13.342;2023-10-19T06:22:23;32.67;;;21.17;;
4961;SDS011;2496;52.468;13.342;2023-10-19T06:24:50;38.83;;;20.93;;
4961;SDS011;2496;52.468;13.342;2023-10-19T06:27:17;41.40;;;21.97;;
4961;SDS011;2496;52.468;13.342;2023-10-19T06:29:46;31.97;;;20.03;;
4961;SDS011;2496;52.468;13.342;2023-10-19T06:32:14;35.83;;;19.53;;
4961;SDS011;2496;52.468;13.342;2023-10-19T06:34:42;33.63;;;21.10;;
4961;SDS011;2496;52.468;13.342;2023-10-19T06:37:09;42.70;;;20.97;;
4961;SDS011;2496;52.468;13.342;2023-10-19T06:39:36;34.90;;;19.80;;
4961;SDS011;2496;52.468;13.342;2023-10-19T06:42:06;33.57;;;19.10;;
4961;SDS011;2496;52.468;13.342;2023-10-19T06:44:39;38.40;;;21.57;;
4961;SDS011;2496;52.468;13.342;2023-10-19T06:47:09;35.73;;;19.83;;
4961;SDS011;2496;52.468;13.342;2023-10-19T06:49:38;34.90;;;19.37;;
4961;SDS011;2496;52.468;13.342;2023-10-19T06:52:06;35.20;;;21.07;;
4961;SDS011;2496;52.468;13.342;2023-10-19T06:54:36;38.47;;;22.53;;
4961;SDS011;2496;52.468;13.342;2023-10-19T06:57:04;35.07;;;20.53;;
4961;SDS011;2496;52.468;13.342;2023-10-19T06:59:33;36.00;;;20.97;;
4961;SDS011;2496;52.468;13.342;2023-10-19T07:02:00;37.73;;;21.50;;
4961;SDS011;2496;52.468;13.342;2023-10-19T07:04:29;38.20;;;22.33;;
4961;SDS011;2496;52.468;13.342;2023-10-19T07:06:56;33.43;;;19.80;;
4961;SDS011;2496;52.468;13.342;2023-10-19T07:09:23;33.80;;;20.80;;
4961;SDS011;2496;52.468;13.342;2023-10-19T07:11:50;36.07;;;21.57;;
4961;SDS011;2496;52.468;13.342;2023-10-19T07:14:22;42.60;;;20.20;;
4961;SDS011;2496;52.468;13.342;2023-10-19T07:16:51;39.83;;;21.57;;
4961;SDS011;2496;52.468;13.342;2023-10-19T07:19:18;31.27;;;18.63;;
4961;SDS011;2496;52.468;13.342;2023-10-19T07:21:46;32.57;;;21.27;;
4961;SDS011;2496;52.468;13.342;2023-10-19T07:24:18;33.10;;;19.43;;
4961;SDS011;2496;52.468;13.342;2023-10-19T07:26:48;35.10;;;20.50;;
4961;SDS011;2496;52.468;13.342;2023-10-19T07:29:29;34.27;;;21.60;;
4961;SDS011;2496;52.468;13.342;2023-10-19T07:31:57;36.90;;;20.20;;
4961;SDS011;2496;52.468;13.342;2023-10-19T07:34:24;29.77;;;19.30;;
4961;SDS011;2496;52.468;13.342;2023-10-19T07:36:54;36.20;;;20.83;;
4961;SDS011;2496;52.468;13.342;2023-10-19T07:39:24;32.67;;;19.93;;
4961;SDS011;2496;52.468;13.342;2023-10-19T07:41:54;35.03;;;21.13;;
4961;SDS011;2496;52.468;13.342;2023-10-19T07:44:21;35.50;;;20.00;;
4961;SDS011;2496;52.468;13.342;2023-10-19T07:46:49;38.80;;;20.67;;
4961;SDS011;2496;52.468;13.342;2023-10-19T07:49:16;45.30;;;21.80;;
4961;SDS011;2496;52.468;13.342;2023-10-19T07:51:46;34.93;;;20.07;;
4961;SDS011;2496;52.468;13.342;2023-10-19T07:54:16;38.20;;;22.30;;
4961;SDS011;2496;52.468;13.342;2023-10-19T07:56:43;32.10;;;18.80;;
4961;SDS011;2496;52.468;13.342;2023-10-19T07:59:11;30.43;;;19.67;;
4961;SDS011;2496;52.468;13.342;2023-10-19T08:01:38;34.37;;;19.93;;
4961;SDS011;2496;52.468;13.342;2023-10-19T08:04:05;34.67;;;20.47;;
4961;SDS011;2496;52.468;13.342;2023-10-19T08:06:32;34.20;;;19.40;;
4961;SDS011;2496;52.468;13.342;2023-10-19T08:09:00;34.90;;;20.83;;
4961;SDS011;2496;52.468;13.342;2023-10-19T08:11:31;34.93;;;21.53;;
4961;SDS011;2496;52.468;13.342;2023-10-19T08:13:59;34.17;;;20.60;;
4961;SDS011;2496;52.468;13.342;2023-10-19T08:16:26;32.87;;;20.00;;
4961;SDS011;2496;52.468;13.342;2023-10-19T08:18:53;36.30;;;19.30;;
4961;SDS011;2496;52.468;13.342;2023-10-19T08:21:21;41.53;;;20.20;;
4961;SDS011;2496;52.468;13.342;2023-10-19T08:23:48;29.07;;;18.33;;
4961;SDS011;2496;52.468;13.342;2023-10-19T08:26:15;32.10;;;20.07;;
4961;SDS011;2496;52.468;13.342;2023-10-19T08:28:43;28.50;;;18.40;;
4961;SDS011;2496;52.468;13.342;2023-10-19T08:31:10;30.20;;;18.43;;
4961;SDS011;2496;52.468;13.342;2023-10-19T08:33:37;34.30;;;20.00;;
4961;SDS011;2496;52.468;13.342;2023-10-19T08:36:06;28.80;;;19.23;;
4961;SDS011;2496;52.468;13.342;2023-10-19T08:38:41;34.33;;;19.70;;
4961;SDS011;2496;52.468;13.342;2023-10-19T08:41:09;30.87;;;18.13;;
4961;SDS011;2496;52.468;13.342;2023-10-19T08:43:36;28.57;;;18.87;;
4961;SDS011;2496;52.468;13.342;2023-10-19T08:46:06;38.13;;;18.80;;
4961;SDS011;2496;52.468;13.342;2023-10-19T08:48:33;34.00;;;20.43;;
4961;SDS011;2496;52.468;13.342;2023-10-19T08:51:02;32.93;;;18.93;;
4961;SDS011;2496;52.468;13.342;2023-10-19T08:53:32;32.63;;;20.33;;
4961;SDS011;2496;52.468;13.342;2023-10-19T08:56:05;30.70;;;19.57;;
4961;SDS011;2496;52.468;13.342;2023-10-19T08:58:33;38.37;;;18.63;;
4961;SDS011;2496;52.468;13.342;2023-10-19T09:01:00;33.30;;;19.37;;
4961;SDS011;2496;52.468;13.342;2023-10-19T09:03:33;43.07;;;20.17;;
4961;SDS011;2496;52.468;13.342;2023-10-19T09:06:00;31.73;;;19.70;;
4961;SDS011;2496;52.468;13.342;2023-10-19T09:08:28;29.30;;;16.70;;
4961;SDS011;2496;52.468;13.342;2023-10-19T09:11:05;29.27;;;17.93;;
4961;SDS011;2496;52.468;13.342;2023-10-19T09:13:42;28.90;;;18.07;;
4961;SDS011;2496;52.468;13.342;2023-10-19T09:16:10;31.60;;;17.60;;
4961;SDS011;2496;52.468;13.342;2023-10-19T09:18:38;37.10;;;18.40;;
4961;SDS011;2496;52.468;13.342;2023-10-19T09:21:06;29.33;;;17.80;;
4961;SDS011;2496;52.468;13.342;2023-10-19T09:23:36;32.23;;;19.30;;
4961;SDS011;2496;52.468;13.342;2023-10-19T09:26:04;29.37;;;20.33;;
4961;SDS011;2496;52.468;13.342;2023-10-19T09:28:33;31.90;;;20.37;;
4961;SDS011;2496;52.468;13.342;2023-10-19T09:31:02;34.07;;;18.97;;
4961;SDS011;2496;52.468;13.342;2023-10-19T09:33:30;30.73;;;18.60;;
4961;SDS011;2496;52.468;13.342;2023-10-19T09:36:01;28.43;;;19.17;;
4961;SDS011;2496;52.468;13.342;2023-10-19T09:38:33;37.50;;;18.97;;
4961;SDS011;2496;52.468;13.342;2023-10-19T09:41:00;29.37;;;18.43;;
4961;SDS011;2496;52.468;13.342;2023-10-19T09:43:30;28.33;;;18.17;;
4961;SDS011;2496;52.468;13.342;2023-10-19T09:46:01;37.60;;;20.57;;
4961;SDS011;2496;52.468;13.342;2023-10-19T09:48:33;30.43;;;18.47;;
4961;SDS011;2496;52.468;13.342;2023-10-19T09:51:05;32.53;;;19.13;;
4961;SDS011;2496;52.468;13.342;2023-10-19T09:53:34;29.97;;;18.90;;
4961;SDS011;2496;52.468;13.342;2023-10-19T09:56:03;31.87;;;18.63;;
4961;SDS011;2496;52.468;13.342;2023-10-19T09:58:33;26.30;;;18.20;;
4961;SDS011;2496;52.468;13.342;2023-10-19T10:01:04;30.47;;;18.60;;
4961;SDS011;2496;52.468;13.342;2023-10-19T10:03:43;26.10;;;18.17;;
4961;SDS011;2496;52.468;13.342;2023-10-19T10:06:13;30.00;;;19.03;;
4961;SDS011;2496;52.468;13.342;2023-10-19T10:08:41;40.10;;;19.93;;
4961;SDS011;2496;52.468;13.342;2023-10-19T10:11:13;27.83;;;19.10;;
4961;SDS011;2496;52.468;13.342;2023-10-19T10:13:42;28.03;;;17.10;;
4961;SDS011;2496;52.468;13.342;2023-10-19T10:16:11;40.27;;;21.23;;
4961;SDS011;2496;52.468;13.342;2023-10-19T10:18:40;31.17;;;18.47;;
4961;SDS011;2496;52.468;13.342;2023-10-19T10:21:07;32.43;;;19.93;;
4961;SDS011;2496;52.468;13.342;2023-10-19T10:23:42;34.50;;;20.40;;
4961;SDS011;2496;52.468;13.342;2023-10-19T10:26:10;29.23;;;18.60;;
4961;SDS011;2496;52.468;13.342;2023-10-19T10:28:39;31.00;;;20.47;;
4961;SDS011;2496;52.468;13.342;2023-10-19T10:31:10;32.43;;;20.40;;
4961;SDS011;2496;52.468;13.342;2023-10-19T10:33:41;31.90;;;19.80;;
4961;SDS011;2496;52.468;13.342;2023-10-19T10:36:11;32.70;;;21.27;;
4961;SDS011;2496;52.468;13.342;2023-10-19T10:38:39;36.90;;;22.27;;
4961;SDS011;2496;52.468;13.342;2023-10-19T10:41:08;32.50;;;22.27;;
4961;SDS011;2496;52.468;13.342;2023-10-19T10:43:50;37.67;;;21.40;;
4961;SDS011;2496;52.468;13.342;2023-10-19T10:46:19;37.87;;;21.27;;
4961;SDS011;2496;52.468;13.342;2023-10-19T10:48:47;33.20;;;21.80;;
4961;SDS011;2496;52.468;13.342;2023-10-19T10:51:15;38.13;;;22.27;;
4961;SDS011;2496;52.468;13.342;2023-10-19T10:53:42;37.53;;;24.37;;
4961;SDS011;2496;52.468;13.342;2023-10-19T10:56:11;34.00;;;21.97;;
4961;SDS011;2496;52.468;13.342;2023-10-19T10:58:38;34.20;;;22.60;;
4961;SDS011;2496;52.468;13.342;2023-10-19T11:01:05;36.47;;;23.17;;
4961;SDS011;2496;52.468;13.342;2023-10-19T11:03:32;37.10;;;23.70;;
4961;SDS011;2496;52.468;13.342;2023-10-19T11:06:03;39.37;;;22.93;;
4961;SDS011;2496;52.468;13.342;2023-10-19T11:08:33;37.80;;;25.57;;
4961;SDS011;2496;52.468;13.342;2023-10-19T11:11:05;34.37;;;22.90;;
4961;SDS011;2496;52.468;13.342;2023-10-19T11:13:37;32.50;;;21.67;;
4961;SDS011;2496;52.468;13.342;2023-10-19T11:16:05;41.03;;;21.63;;
4961;SDS011;2496;52.468;13.342;2023-10-19T11:18:33;40.63;;;21.60;;
4961;SDS011;2496;52.468;13.342;2023-10-19T11:21:02;41.00;;;23.70;;
4961;SDS011;2496;52.468;13.342;2023-10-19T11:23:34;40.67;;;23.80;;
4961;SDS011;2496;52.468;13.342;2023-10-19T11:26:02;39.47;;;21.20;;
4961;SDS011;2496;52.468;13.342;2023-10-19T11:28:30;33.03;;;22.40;;
4961;SDS011;2496;52.468;13.342;2023-10-19T11:31:11;33.80;;;22.37;;
4961;SDS011;2496;52.468;13.342;2023-10-19T11:33:40;34.03;;;22.30;;
4961;SDS011;2496;52.468;13.342;2023-10-19T11:36:08;37.27;;;22.60;;
4961;SDS011;2496;52.468;13.342;2023-10-19T11:38:37;38.13;;;22.07;;
4961;SDS011;2496;52.468;13.342;2023-10-19T11:41:05;38.63;;;22.33;;
4961;SDS011;2496;52.468;13.342;2023-10-19T11:43:34;39.00;;;22.90;;
4961;SDS011;2496;52.468;13.342;2023-10-19T11:46:01;34.77;;;23.13;;
4961;SDS011;2496;52.468;13.342;2023-10-19T11:48:31;36.20;;;23.03;;
4961;SDS011;2496;52.468;13.342;2023-10-19T11:50:59;29.07;;;21.83;;
4961;SDS011;2496;52.468;13.342;2023-10-19T11:53:29;38.97;;;23.00;;
4961;SDS011;2496;52.468;13.342;2023-10-19T11:56:01;41.23;;;24.83;;
4961;SDS011;2496;52.468;13.342;2023-10-19T11:58:31;35.50;;;23.77;;
4961;SDS011;2496;52.468;13.342;2023-10-19T12:00:59;39.00;;;23.50;;
4961;SDS011;2496;52.468;13.342;2023-10-19T12:03:28;38.83;;;24.20;;
4961;SDS011;2496;52.468;13.342;2023-10-19T12:05:56;36.97;;;23.80;;
4961;SDS011;2496;52.468;13.342;2023-10-19T12:08:23;41.20;;;25.40;;
4961;SDS011;2496;52.468;13.342;2023-10-19T12:10:50;37.00;;;22.67;;
4961;SDS011;2496;52.468;13.342;2023-10-19T12:13:17;43.10;;;26.80;;
4961;SDS011;2496;52.468;13.342;2023-10-19T12:15:45;36.67;;;23.50;;
4961;SDS011;2496;52.468;13.342;2023-10-19T12:18:18;41.07;;;25.30;;
4961;SDS011;2496;52.468;13.342;2023-10-19T12:20:45;45.53;;;25.90;;
4961;SDS011;2496;52.468;13.342;2023-10-19T12:23:14;42.40;;;25.70;;
4961;SDS011;2496;52.468;13.342;2023-10-19T12:25:41;39.53;;;24.97;;
4961;SDS011;2496;52.468;13.342;2023-10-19T12:28:08;38.63;;;23.37;;
4961;SDS011;2496;52.468;13.342;2023-10-19T12:30:39;38.43;;;24.50;;
4961;SDS011;2496;52.468;13.342;2023-10-19T12:33:10;41.53;;;25.20;;
4961;SDS011;2496;52.468;13.342;2023-10-19T12:35:40;39.77;;;24.93;;
4961;SDS011;2496;52.468;13.342;2023-10-19T12:38:11;42.90;;;25.93;;
4961;SDS011;2496;52.468;13.342;2023-10-19T12:40:46;39.23;;;24.83;;
4961;SDS011;2496;52.468;13.342;2023-10-19T12:43:13;41.20;;;23.67;;
4961;SDS011;2496;52.468;13.342;2023-10-19T12:45:41;41.87;;;24.47;;
4961;SDS011;2496;52.468;13.342;2023-10-19T12:48:09;37.80;;;24.23;;
4961;SDS011;2496;52.468;13.342;2023-10-19T12:50:37;43.60;;;27.70;;
4961;SDS011;2496;52.468;13.342;2023-10-19T12:53:06;44.17;;;28.17;;
4961;SDS011;2496;52.468;13.342;2023-10-19T12:55:35;43.10;;;27.60;;
4961;SDS011;2496;52.468;13.342;2023-10-19T12:58:04;43.37;;;25.20;;
4961;SDS011;2496;52.468;13.342;2023-10-19T13:00:35;47.47;;;26.27;;
4961;SDS011;2496;52.468;13.342;2023-10-19T13:03:06;43.27;;;26.47;;
4961;SDS011;2496;52.468;13.342;2023-10-19T13:05:34;46.03;;;26.20;;
4961;SDS011;2496;52.468;13.342;2023-10-19T13:08:02;46.03;;;27.20;;
4961;SDS011;2496;52.468;13.342;2023-10-19T13:10:31;44.77;;;27.67;;
4961;SDS011;2496;52.468;13.342;2023-10-19T13:13:01;40.00;;;27.00;;
4961;SDS011;2496;52.468;13.342;2023-10-19T13:15:31;45.07;;;29.30;;
4961;SDS011;2496;52.468;13.342;2023-10-19T13:17:59;47.30;;;29.10;;
4961;SDS011;2496;52.468;13.342;2023-10-19T13:20:28;47.43;;;29.20;;
4961;SDS011;2496;52.468;13.342;2023-10-19T13:22:59;47.10;;;27.30;;
4961;SDS011;2496;52.468;13.342;2023-10-19T13:25:28;48.97;;;27.73;;
4961;SDS011;2496;52.468;13.342;2023-10-19T13:28:06;49.47;;;28.20;;
4961;SDS011;2496;52.468;13.342;2023-10-19T13:30:40;50.90;;;28.43;;
4961;SDS011;2496;52.468;13.342;2023-10-19T13:33:08;47.83;;;28.87;;
4961;SDS011;2496;52.468;13.342;2023-10-19T13:35:36;48.43;;;28.20;;
4961;SDS011;2496;52.468;13.342;2023-10-19T13:38:03;45.07;;;28.20;;
4961;SDS011;2496;52.468;13.342;2023-10-19T13:40:31;54.67;;;31.83;;
4961;SDS011;2496;52.468;13.342;2023-10-19T13:42:58;51.30;;;29.20;;
4961;SDS011;2496;52.468;13.342;2023-10-19T13:45:25;45.43;;;29.60;;
4961;SDS011;2496;52.468;13.342;2023-10-19T13:47:54;48.07;;;30.77;;
4961;SDS011;2496;52.468;13.342;2023-10-19T13:50:22;54.73;;;30.20;;
4961;SDS011;2496;52.468;13.342;2023-10-19T13:52:51;52.30;;;31.10;;
4961;SDS011;2496;52.468;13.342;2023-10-19T13:55:18;61.53;;;30.90;;
4961;SDS011;2496;52.468;13.342;2023-10-19T13:57:46;53.70;;;30.50;;
4961;SDS011;2496;52.468;13.342;2023-10-19T14:00:14;45.77;;;28.93;;
4961;SDS011;2496;52.468;13.342;2023-10-19T14:02:48;54.53;;;31.20;;
4961;SDS011;2496;52.468;13.342;2023-10-19T14:05:17;48.73;;;29.67;;
4961;SDS011;2496;52.468;13.342;2023-10-19T14:07:45;49.27;;;31.20;;
4961;SDS011;2496;52.468;13.342;2023-10-19T14:10:12;56.60;;;33.30;;
4961;SDS011;2496;52.468;13.342;2023-10-19T14:12:41;63.60;;;32.10;;
4961;SDS011;2496;52.468;13.342;2023-10-19T14:15:12;46.20;;;28.50;;
4961;SDS011;2496;52.468;13.342;2023-10-19T14:17:41;57.10;;;30.70;;
4961;SDS011;2496;52.468;13.342;2023-10-19T14:20:08;61.03;;;32.43;;
4961;SDS011;2496;52.468;13.342;2023-10-19T14:22:43;51.80;;;33.27;;
4961;SDS011;2496;52.468;13.342;2023-10-19T14:25:11;49.03;;;31.47;;
4961;SDS011;2496;52.468;13.342;2023-10-19T14:27:39;55.83;;;33.50;;
4961;SDS011;2496;52.468;13.342;2023-10-19T14:30:07;50.63;;;31.77;;
4961;SDS011;2496;52.468;13.342;2023-10-19T14:32:37;50.83;;;31.23;;
4961;SDS011;2496;52.468;13.342;2023-10-19T14:35:05;53.40;;;30.80;;
4961;SDS011;2496;52.468;13.342;2023-10-19T14:37:36;51.90;;;30.87;;
4961;SDS011;2496;52.468;13.342;2023-10-19T14:40:07;53.73;;;29.97;;
4961;SDS011;2496;52.468;13.342;2023-10-19T14:42:35;56.33;;;32.57;;
4961;SDS011;2496;52.468;13.342;2023-10-19T14:45:04;60.90;;;35.97;;